Time;durP1;ratioP1;P1;durP2;ratioP2;P2;SDS_P1;SDS_P2;PMS_P1;PMS_P2;Temp;Humidity;BMP_temperature;BMP_pressure;BME280_temperature;BME280_humidity;BME280_pressure;Samples;Min_cycle;Max_cycle;Signal;HPM_P1;HPM_P2
2022/09/18 00:01:16;;;;;;;14.27;8.00;;;18.30;49.70;;;;;;4978949;28;20929;-78
2022/09/18 00:03:45;;;;;;;13.73;7.07;;;18.20;50.00;;;;;;4983415;28;20460;-78
2022/09/18 00:06:14;;;;;;;16.40;8.20;;;18.20;49.80;;;;;;4997040;28;20460;-80
2022/09/18 00:08:43;;;;;;;17.77;7.20;;;18.10;50.10;;;;;;5006096;28;20455;-80
2022/09/18 00:11:12;;;;;;;19.40;8.80;;;18.10;49.70;;;;;;4994462;28;20461;-80
2022/09/18 00:13:41;;;;;;;20.43;8.47;;;18.10;49.70;;;;;;4979028;28;20478;-79
2022/09/18 00:16:09;;;;;;;13.17;6.30;;;18.10;50.00;;;;;;4997638;28;20452;-80
2022/09/18 00:18:39;;;;;;;22.73;10.10;;;18.10;50.40;;;;;;4997214;28;20456;-79
2022/09/18 00:21:08;;;;;;;15.93;7.90;;;18.20;50.10;;;;;;4989084;28;20462;-79
2022/09/18 00:23:36;;;;;;;18.43;6.80;;;18.20;49.80;;;;;;4979250;28;20449;-80
2022/09/18 00:26:04;;;;;;;21.70;8.27;;;18.20;49.80;;;;;;4996035;28;20460;-80
2022/09/18 00:28:33;;;;;;;15.70;6.80;;;18.20;49.80;;;;;;4996826;28;20465;-79
2022/09/18 00:31:04;;;;;;;21.33;7.30;;;18.20;49.80;;;;;;4998523;28;20441;-79
2022/09/18 00:33:33;;;;;;;18.57;9.27;;;18.20;49.70;;;;;;4998614;28;20572;-80
2022/09/18 00:36:03;;;;;;;16.87;8.13;;;18.20;50.20;;;;;;4997780;28;20468;-80
2022/09/18 00:38:31;;;;;;;17.90;9.30;;;18.20;49.80;;;;;;4997434;28;20839;-79
2022/09/18 00:40:59;;;;;;;22.73;12.93;;;18.20;50.00;;;;;;4996675;28;20453;-79
2022/09/18 00:43:28;;;;;;;16.60;8.43;;;18.10;50.70;;;;;;4996342;28;20445;-79
2022/09/18 00:45:57;;;;;;;28.00;16.17;;;18.20;49.70;;;;;;4990857;28;20433;-78
2022/09/18 00:48:27;;;;;;;19.20;11.67;;;18.10;50.30;;;;;;4995196;28;20484;-79
2022/09/18 00:50:55;;;;;;;19.30;10.57;;;18.00;49.90;;;;;;4994756;28;20488;-80
2022/09/18 00:53:25;;;;;;;19.47;10.07;;;18.00;50.40;;;;;;4994913;28;20492;-81
2022/09/18 00:55:53;;;;;;;16.17;7.70;;;18.10;49.90;;;;;;4977103;28;20514;-81
2022/09/18 00:58:21;;;;;;;17.33;8.53;;;18.10;50.20;;;;;;4995072;28;20445;-81
2022/09/18 01:00:50;;;;;;;16.80;8.37;;;18.20;50.00;;;;;;5012091;28;20467;-82
2022/09/18 01:03:18;;;;;;;12.60;6.37;;;18.20;49.80;;;;;;5014745;28;20447;-81
2022/09/18 01:05:55;;;;;;;13.20;6.07;;;18.20;49.40;;;;;;5008801;28;20449;-80
2022/09/18 01:08:36;;;;;;;18.00;4.97;;;18.10;49.90;;;;;;4998405;28;20452;-80
2022/09/18 01:11:18;;;;;;;6.43;3.97;;;18.10;49.60;;;;;;5001297;28;20453;-80
2022/09/18 01:13:51;;;;;;;5.87;2.93;;;18.10;49.80;;;;;;4998106;28;20468;-80
2022/09/18 01:16:21;;;;;;;15.03;3.50;;;18.00;49.80;;;;;;4990192;28;20440;-81
2022/09/18 01:18:54;;;;;;;4.03;2.37;;;17.90;50.10;;;;;;5019266;28;20444;-80
2022/09/18 01:21:24;;;;;;;7.37;2.40;;;17.80;50.10;;;;;;5009544;28;20480;-80
2022/09/18 01:24:20;;;;;;;6.47;1.87;;;17.80;50.00;;;;;;4989456;28;20463;-80
2022/09/18 01:26:53;;;;;;;5.30;2.17;;;17.80;50.30;;;;;;5012030;28;20429;-80
2022/09/18 01:29:26;;;;;;;6.47;1.87;;;17.80;50.20;;;;;;5012431;28;20479;-80
2022/09/18 01:31:56;;;;;;;6.70;2.27;;;17.70;50.70;;;;;;5000934;28;20433;-80
2022/09/18 01:34:25;;;;;;;5.67;1.60;;;17.70;50.60;;;;;;5002076;28;20485;-80
2022/09/18 01:36:55;;;;;;;5.00;1.70;;;17.60;50.60;;;;;;5001669;28;20452;-80
2022/09/18 01:39:25;;;;;;;4.27;2.03;;;17.70;50.40;;;;;;4983908;28;20473;-80
2022/09/18 01:41:53;;;;;;;15.93;1.70;;;17.70;50.60;;;;;;4987033;28;20984;-81
2022/09/18 01:44:23;;;;;;;5.57;1.57;;;17.70;50.30;;;;;;5008004;28;20436;-80
2022/09/18 01:46:51;;;;;;;4.83;1.40;;;17.80;50.40;;;;;;5000692;28;20466;-79
2022/09/18 01:49:22;;;;;;;5.17;1.60;;;17.80;50.50;;;;;;5008759;28;21042;-80
2022/09/18 01:51:52;;;;;;;4.07;1.40;;;17.80;50.20;;;;;;5006311;28;20461;-80
2022/09/18 01:54:21;;;;;;;8.57;2.10;;;17.80;50.40;;;;;;5001093;28;20504;-80
2022/09/18 01:56:51;;;;;;;6.87;1.60;;;17.70;50.20;;;;;;5000982;28;20500;-80
2022/09/18 01:59:24;;;;;;;2.17;1.33;;;17.70;50.40;;;;;;4998798;28;20469;-80
2022/09/18 02:01:52;;;;;;;7.90;1.63;;;17.70;50.70;;;;;;4992397;28;20445;-79
2022/09/18 02:04:22;;;;;;;3.90;1.23;;;17.70;50.60;;;;;;5013880;28;20475;-80
2022/09/18 02:06:53;;;;;;;6.30;1.80;;;17.70;50.80;;;;;;4986365;28;20462;-80
2022/09/18 02:09:21;;;;;;;4.40;1.67;;;17.60;50.50;;;;;;4996085;28;20477;-79
2022/09/18 02:11:50;;;;;;;6.37;1.80;;;17.60;50.80;;;;;;4999573;28;20461;-81
2022/09/18 02:14:19;;;;;;;6.40;2.80;;;17.50;51.20;;;;;;4999761;28;20473;-82
2022/09/18 02:16:49;;;;;;;9.47;2.50;;;17.50;51.00;;;;;;5000051;28;20461;-81
2022/09/18 02:19:18;;;;;;;5.50;1.97;;;17.60;51.30;;;;;;4999188;28;20477;-81
2022/09/18 02:21:46;;;;;;;8.87;2.77;;;17.60;51.10;;;;;;4991298;28;20457;-81
2022/09/18 02:24:15;;;;;;;6.63;1.77;;;17.50;51.00;;;;;;4986466;28;20462;-80
2022/09/18 02:26:43;;;;;;;3.47;1.40;;;17.50;51.10;;;;;;4982753;28;20458;-80
2022/09/18 02:29:12;;;;;;;9.73;2.23;;;17.50;51.50;;;;;;4999080;28;20477;-80
2022/09/18 02:31:39;;;;;;;12.10;2.23;;;17.50;51.50;;;;;;5000535;28;20440;-82
2022/09/18 02:34:09;;;;;;;5.90;1.93;;;17.50;51.20;;;;;;5000208;28;20482;-80
2022/09/18 02:36:55;;;;;;;9.73;2.10;;;17.50;51.20;;;;;;4997870;28;20500;-79
2022/09/18 02:39:30;;;;;;;7.97;1.90;;;17.40;51.20;;;;;;4981312;28;20470;-79
2022/09/18 02:42:02;;;;;;;6.50;2.13;;;17.40;51.50;;;;;;4990290;28;20449;-80
2022/09/18 02:44:32;;;;;;;6.83;1.90;;;17.40;51.60;;;;;;4986747;28;20454;-80
2022/09/18 02:47:03;;;;;;;6.83;2.10;;;17.40;51.20;;;;;;4997845;28;20453;-80
2022/09/18 02:49:39;;;;;;;10.13;1.80;;;17.40;51.50;;;;;;4985012;28;20488;-80
2022/09/18 02:52:09;;;;;;;8.83;2.20;;;17.40;51.50;;;;;;4998648;28;20456;-80
2022/09/18 02:54:40;;;;;;;5.80;1.50;;;17.40;51.50;;;;;;4998365;28;20466;-79
2022/09/18 02:57:10;;;;;;;6.07;2.10;;;17.40;51.40;;;;;;4999075;28;20452;-79
2022/09/18 02:59:38;;;;;;;6.20;2.07;;;17.40;51.40;;;;;;4997121;28;20527;-79
2022/09/18 03:02:06;;;;;;;5.97;1.90;;;17.30;51.70;;;;;;4998611;28;20448;-80
2022/09/18 03:04:36;;;;;;;8.90;2.27;;;17.40;51.90;;;;;;4996925;28;20449;-80
2022/09/18 03:07:04;;;;;;;9.70;2.03;;;17.40;51.60;;;;;;4995071;28;20457;-78
2022/09/18 03:09:33;;;;;;;7.37;1.67;;;17.40;51.80;;;;;;4995889;28;20489;-79
2022/09/18 03:12:02;;;;;;;7.47;1.57;;;17.40;51.70;;;;;;4995753;28;20454;-79
2022/09/18 03:14:30;;;;;;;10.20;2.10;;;17.50;51.60;;;;;;4995389;28;20473;-79
2022/09/18 03:16:58;;;;;;;4.60;1.60;;;17.50;51.60;;;;;;4995739;28;20449;-79
2022/09/18 03:19:26;;;;;;;5.13;1.77;;;17.40;51.80;;;;;;4994377;28;20472;-79
2022/09/18 03:21:55;;;;;;;5.87;1.77;;;17.50;52.00;;;;;;4994540;28;20457;-79
2022/09/18 03:24:24;;;;;;;6.40;1.67;;;17.40;51.90;;;;;;4978884;28;20850;-79
2022/09/18 03:26:52;;;;;;;6.40;1.93;;;17.40;52.10;;;;;;4987884;28;20453;-79
2022/09/18 03:29:20;;;;;;;3.50;1.53;;;17.40;52.40;;;;;;5001140;28;20511;-79
2022/09/18 03:31:48;;;;;;;5.90;1.43;;;17.40;52.20;;;;;;4995076;28;20454;-79
2022/09/18 03:34:16;;;;;;;7.63;1.60;;;17.40;52.60;;;;;;4995122;28;20513;-79
2022/09/18 03:36:45;;;;;;;5.47;1.90;;;17.40;52.00;;;;;;4995273;28;20453;-79
2022/09/18 03:39:15;;;;;;;6.70;1.73;;;17.40;52.60;;;;;;4994658;28;20481;-79
2022/09/18 03:41:43;;;;;;;4.50;1.80;;;17.50;52.50;;;;;;4995292;28;20876;-79
2022/09/18 03:44:11;;;;;;;7.50;1.77;;;17.50;52.60;;;;;;5008520;28;20447;-79
2022/09/18 03:46:39;;;;;;;5.90;1.70;;;17.60;52.40;;;;;;5001371;28;20465;-79
2022/09/18 03:49:07;;;;;;;7.47;2.00;;;17.50;52.20;;;;;;4980428;28;20473;-79
2022/09/18 03:51:35;;;;;;;5.87;1.70;;;17.60;52.30;;;;;;4990704;28;20469;-79
2022/09/18 03:54:03;;;;;;;4.33;1.40;;;17.50;52.20;;;;;;4977753;28;20450;-79
2022/09/18 03:56:37;;;;;;;6.10;1.70;;;17.50;52.70;;;;;;4992010;28;20453;-79
2022/09/18 03:59:05;;;;;;;10.23;1.87;;;17.40;52.80;;;;;;4999745;28;20476;-79
2022/09/18 04:01:33;;;;;;;6.17;1.83;;;17.40;52.80;;;;;;5008322;28;20451;-79
2022/09/18 04:04:01;;;;;;;4.43;1.50;;;17.40;52.60;;;;;;4996742;28;20433;-79
2022/09/18 04:06:29;;;;;;;6.63;2.27;;;17.30;52.80;;;;;;4996718;28;20432;-79
2022/09/18 04:08:57;;;;;;;7.83;2.10;;;17.30;53.10;;;;;;4996162;28;20469;-79
2022/09/18 04:11:25;;;;;;;5.77;1.70;;;17.30;53.00;;;;;;4995928;28;20441;-79
2022/09/18 04:13:55;;;;;;;7.43;1.90;;;17.30;52.90;;;;;;4996161;28;20460;-79
2022/09/18 04:16:23;;;;;;;8.57;1.90;;;17.20;52.50;;;;;;4984649;28;20477;-79
2022/09/18 04:18:51;;;;;;;7.93;1.87;;;17.20;52.80;;;;;;4995994;28;20492;-79
2022/09/18 04:21:19;;;;;;;5.13;1.57;;;17.20;53.10;;;;;;4996333;28;20453;-79
2022/09/18 04:23:48;;;;;;;5.73;1.80;;;17.20;53.00;;;;;;4990661;28;21090;-79
2022/09/18 04:26:16;;;;;;;12.73;2.10;;;17.20;52.70;;;;;;4993519;28;20433;-79
2022/09/18 04:28:44;;;;;;;4.97;1.57;;;17.20;52.80;;;;;;4998575;28;20460;-79
2022/09/18 04:31:13;;;;;;;5.80;1.70;;;17.20;53.10;;;;;;4998143;28;20449;-79
2022/09/18 04:33:41;;;;;;;8.33;2.10;;;17.20;52.90;;;;;;5006046;28;20524;-79
2022/09/18 04:36:09;;;;;;;7.30;1.63;;;17.20;52.80;;;;;;4998390;28;20476;-79
2022/09/18 04:38:38;;;;;;;4.20;1.30;;;17.20;53.00;;;;;;4997014;28;20461;-79
2022/09/18 04:41:06;;;;;;;5.90;1.93;;;17.20;52.80;;;;;;4995609;28;20468;-79
2022/09/18 04:43:34;;;;;;;9.03;1.50;;;17.20;52.90;;;;;;4996339;28;20463;-79
2022/09/18 04:46:02;;;;;;;5.53;1.77;;;17.20;53.00;;;;;;5000562;28;20456;-79
2022/09/18 04:48:32;;;;;;;2.90;1.30;;;17.20;52.90;;;;;;4994318;28;20444;-79
2022/09/18 04:51:00;;;;;;;12.10;1.73;;;17.20;53.00;;;;;;5004887;28;20475;-79
2022/09/18 04:53:31;;;;;;;10.47;1.57;;;17.10;53.10;;;;;;4997733;28;20484;-80
2022/09/18 04:55:58;;;;;;;8.30;1.73;;;17.20;52.80;;;;;;4991852;28;20476;-79
2022/09/18 04:58:27;;;;;;;4.33;1.63;;;17.10;53.10;;;;;;4992764;28;20458;-79
2022/09/18 05:00:54;;;;;;;6.77;1.40;;;17.20;53.00;;;;;;4994197;28;20473;-79
2022/09/18 05:03:23;;;;;;;3.57;1.90;;;17.20;53.10;;;;;;5001270;28;20459;-79
2022/09/18 05:05:53;;;;;;;4.20;1.50;;;17.20;53.60;;;;;;4998867;28;20445;-79
2022/09/18 05:08:21;;;;;;;6.17;1.43;;;17.20;53.00;;;;;;5016564;28;20608;-80
2022/09/18 05:10:49;;;;;;;5.53;1.37;;;17.20;52.80;;;;;;5004759;28;20469;-79
2022/09/18 05:13:17;;;;;;;7.63;1.47;;;17.20;53.20;;;;;;5001147;28;20451;-79
2022/09/18 05:15:45;;;;;;;7.47;1.47;;;17.20;53.10;;;;;;5001672;28;20473;-79
2022/09/18 05:18:13;;;;;;;13.30;2.07;;;17.20;53.30;;;;;;4991765;28;20460;-79
2022/09/18 05:20:41;;;;;;;4.70;1.47;;;17.20;53.50;;;;;;5002948;28;20453;-80
2022/09/18 05:23:10;;;;;;;5.30;1.33;;;17.20;53.40;;;;;;4999981;28;20460;-79
2022/09/18 05:25:38;;;;;;;5.07;1.67;;;17.30;53.30;;;;;;4994617;28;20453;-79
2022/09/18 05:28:06;;;;;;;7.60;1.73;;;17.30;53.40;;;;;;4999474;28;20449;-79
2022/09/18 05:30:34;;;;;;;18.93;1.90;;;17.30;53.20;;;;;;4999308;28;20475;-79
2022/09/18 05:33:02;;;;;;;8.13;1.67;;;17.30;53.50;;;;;;4998444;28;20452;-79
2022/09/18 05:35:31;;;;;;;8.90;1.50;;;17.30;53.50;;;;;;5000475;28;20560;-79
2022/09/18 05:37:59;;;;;;;9.97;2.20;;;17.40;53.20;;;;;;4999268;28;20483;-79
2022/09/18 05:40:29;;;;;;;6.40;1.37;;;17.40;53.60;;;;;;5013855;28;20471;-79
2022/09/18 05:42:58;;;;;;;5.87;1.50;;;17.30;53.50;;;;;;5019751;28;20459;-79
2022/09/18 05:45:26;;;;;;;6.20;1.53;;;17.30;53.80;;;;;;4982973;28;20450;-79
2022/09/18 05:47:55;;;;;;;5.33;1.40;;;17.20;54.10;;;;;;4983077;28;20454;-79
2022/09/18 05:50:23;;;;;;;5.73;1.63;;;17.30;54.30;;;;;;4998527;28;20491;-79
2022/09/18 05:53:00;;;;;;;3.40;1.20;;;17.40;54.50;;;;;;4999699;28;20445;-79
2022/09/18 05:55:30;;;;;;;10.47;1.70;;;17.40;54.50;;;;;;4997856;28;20472;-79
2022/09/18 05:57:59;;;;;;;4.03;1.70;;;17.40;54.40;;;;;;4998925;28;20446;-79
2022/09/18 06:00:28;;;;;;;11.40;2.00;;;17.40;54.30;;;;;;4998787;28;20473;-79
2022/09/18 06:02:59;;;;;;;3.00;1.37;;;17.50;54.40;;;;;;4997651;28;20463;-78
2022/09/18 06:05:27;;;;;;;4.70;1.73;;;17.50;54.40;;;;;;4999238;28;20452;-81
2022/09/18 06:07:57;;;;;;;5.83;1.80;;;17.60;54.50;;;;;;4999663;28;20441;-79
2022/09/18 06:10:26;;;;;;;7.10;1.70;;;17.70;54.00;;;;;;4989245;28;20474;-79
2022/09/18 06:13:01;;;;;;;5.77;1.40;;;17.70;54.10;;;;;;4997424;28;20437;-79
2022/09/18 06:15:29;;;;;;;8.83;1.60;;;17.80;54.10;;;;;;4999843;28;20508;-79
2022/09/18 06:17:57;;;;;;;5.60;1.80;;;17.80;54.00;;;;;;4996251;28;20464;-79
2022/09/18 06:20:25;;;;;;;7.07;1.50;;;17.90;54.40;;;;;;4998185;28;20476;-79
2022/09/18 06:22:53;;;;;;;9.27;1.67;;;17.90;53.80;;;;;;5000100;28;20449;-79
2022/09/18 06:25:22;;;;;;;6.10;1.50;;;17.90;54.10;;;;;;4999401;28;20453;-79
2022/09/18 06:27:57;;;;;;;6.73;1.63;;;18.00;54.10;;;;;;5000000;28;20450;-79
2022/09/18 06:30:27;;;;;;;7.93;1.73;;;17.90;53.80;;;;;;5015790;28;20472;-80
2022/09/18 06:32:56;;;;;;;5.20;1.47;;;17.90;54.10;;;;;;5011342;28;20544;-80
2022/09/18 06:35:24;;;;;;;2.30;1.17;;;18.00;53.60;;;;;;4991849;28;20462;-80
2022/09/18 06:37:52;;;;;;;7.53;1.70;;;18.00;53.80;;;;;;4989259;28;20545;-80
2022/09/18 06:40:20;;;;;;;9.40;1.90;;;18.00;54.00;;;;;;5000493;28;20469;-80
2022/09/18 06:42:54;;;;;;;7.77;1.50;;;18.10;53.80;;;;;;4999306;28;20473;-80
2022/09/18 06:45:22;;;;;;;3.87;1.63;;;18.10;53.90;;;;;;5000540;28;20448;-80
2022/09/18 06:47:53;;;;;;;3.97;1.37;;;18.20;53.90;;;;;;5000467;28;20516;-80
2022/09/18 06:50:21;;;;;;;4.33;1.37;;;18.20;53.30;;;;;;4998901;28;20567;-80
2022/09/18 06:52:50;;;;;;;6.90;1.53;;;18.20;53.50;;;;;;5000322;28;20609;-80
2022/09/18 06:55:18;;;;;;;2.87;1.33;;;18.20;53.70;;;;;;5000050;28;20441;-81
2022/09/18 06:57:53;;;;;;;11.57;1.80;;;18.20;53.80;;;;;;5000565;28;20492;-81
2022/09/18 07:00:21;;;;;;;11.20;2.60;;;18.20;54.00;;;;;;4998942;28;20507;-80
2022/09/18 07:02:56;;;;;;;6.47;1.80;;;18.20;54.20;;;;;;5010307;28;20453;-82
2022/09/18 07:05:25;;;;;;;4.97;1.93;;;18.30;54.60;;;;;;4999392;28;20463;-80
2022/09/18 07:07:53;;;;;;;5.53;1.77;;;18.30;54.80;;;;;;4998239;28;20556;-80
2022/09/18 07:10:22;;;;;;;7.97;2.03;;;18.40;54.90;;;;;;4997169;28;20470;-81
2022/09/18 07:12:51;;;;;;;3.63;1.93;;;18.40;55.30;;;;;;4991814;28;20461;-80
2022/09/18 07:15:19;;;;;;;2.63;1.57;;;18.40;55.20;;;;;;4981817;28;20449;-80
2022/09/18 07:17:48;;;;;;;7.53;2.40;;;18.50;55.40;;;;;;5007998;28;20475;-80
2022/09/18 07:20:19;;;;;;;5.80;1.50;;;18.50;55.20;;;;;;5017841;28;20506;-80
2022/09/18 07:22:52;;;;;;;4.63;1.70;;;18.50;55.20;;;;;;4999940;28;20449;-80
2022/09/18 07:25:20;;;;;;;4.17;1.43;;;18.60;55.70;;;;;;4999399;28;20457;-80
2022/09/18 07:27:49;;;;;;;4.87;1.80;;;18.60;55.80;;;;;;4985002;28;20497;-80
2022/09/18 07:30:17;;;;;;;8.90;2.10;;;18.60;55.40;;;;;;5003321;28;20479;-80
2022/09/18 07:32:45;;;;;;;7.23;2.00;;;18.60;55.40;;;;;;5000688;28;20459;-81
2022/09/18 07:35:14;;;;;;;5.67;1.50;;;18.70;55.40;;;;;;5000842;28;20463;-80
2022/09/18 07:37:43;;;;;;;5.67;1.60;;;18.70;55.80;;;;;;4999780;28;20552;-80
2022/09/18 07:40:12;;;;;;;2.77;1.30;;;18.70;55.80;;;;;;4980916;28;20477;-80
2022/09/18 07:42:40;;;;;;;5.00;1.67;;;18.70;55.60;;;;;;4990304;28;20457;-80
2022/09/18 07:45:09;;;;;;;8.50;1.50;;;18.80;55.80;;;;;;4980942;28;20442;-80
2022/09/18 07:47:37;;;;;;;5.17;1.93;;;18.80;55.70;;;;;;4986689;28;20480;-80
2022/09/18 07:50:07;;;;;;;6.33;1.77;;;18.90;55.60;;;;;;5004556;28;20486;-80
2022/09/18 07:52:36;;;;;;;4.70;1.40;;;18.80;55.30;;;;;;4993041;28;20450;-80
2022/09/18 07:55:06;;;;;;;3.13;1.10;;;18.80;55.40;;;;;;4991877;28;20445;-80
2022/09/18 07:57:34;;;;;;;5.37;1.63;;;18.70;55.60;;;;;;5016216;28;20838;-80
2022/09/18 08:00:03;;;;;;;6.67;1.90;;;18.80;55.90;;;;;;5019187;28;20464;-80
2022/09/18 08:02:32;;;;;;;8.90;2.20;;;18.90;55.60;;;;;;5008738;28;20453;-80
2022/09/18 08:05:00;;;;;;;3.83;1.50;;;18.90;55.60;;;;;;5011655;28;20520;-78
2022/09/18 08:07:28;;;;;;;9.87;2.83;;;19.00;55.40;;;;;;5015653;28;20459;-79
2022/09/18 08:09:57;;;;;;;10.30;2.90;;;19.10;55.80;;;;;;4989847;28;20461;-80
2022/09/18 08:12:26;;;;;;;4.00;2.20;;;19.10;55.50;;;;;;4996113;28;20477;-79
2022/09/18 08:14:54;;;;;;;4.43;1.87;;;19.30;55.80;;;;;;4998316;28;20465;-79
2022/09/18 08:17:22;;;;;;;5.17;1.73;;;19.40;55.70;;;;;;4998729;28;20484;-78
2022/09/18 08:19:50;;;;;;;5.53;1.40;;;19.50;55.50;;;;;;5000314;28;20466;-79
2022/09/18 08:22:18;;;;;;;5.53;1.57;;;19.60;55.60;;;;;;4999415;28;20462;-79
2022/09/18 08:24:46;;;;;;;3.10;1.13;;;19.70;55.10;;;;;;4999256;28;20460;-79
2022/09/18 08:27:14;;;;;;;4.30;1.27;;;19.90;54.90;;;;;;4998361;28;20428;-80
2022/09/18 08:29:43;;;;;;;2.00;1.10;;;20.10;54.90;;;;;;4999627;28;20473;-81
2022/09/18 08:32:11;;;;;;;2.60;1.17;;;20.10;54.50;;;;;;4982586;28;20439;-79
2022/09/18 08:34:39;;;;;;;4.50;1.23;;;20.10;54.10;;;;;;5000028;28;20453;-79
2022/09/18 08:37:08;;;;;;;3.63;1.30;;;20.20;53.80;;;;;;5000720;28;20994;-79
2022/09/18 08:39:36;;;;;;;7.93;1.57;;;20.20;53.70;;;;;;4989992;28;20499;-79
2022/09/18 08:42:16;;;;;;;2.83;1.60;;;20.10;53.60;;;;;;4994674;28;20439;-80
2022/09/18 08:44:47;;;;;;;6.73;2.17;;;20.10;53.50;;;;;;4998729;28;20460;-79
2022/09/18 08:47:16;;;;;;;3.30;1.50;;;20.10;53.60;;;;;;4996134;28;20449;-79
2022/09/18 08:49:46;;;;;;;5.43;1.47;;;20.20;53.60;;;;;;4994021;28;20492;-80
2022/09/18 08:52:15;;;;;;;6.23;1.87;;;20.20;53.60;;;;;;4995059;28;20454;-81
2022/09/18 08:54:46;;;;;;;3.23;1.33;;;20.20;53.30;;;;;;5002061;28;20452;-81
2022/09/18 08:57:19;;;;;;;5.07;1.53;;;20.10;53.80;;;;;;4990325;28;20472;-80
2022/09/18 08:59:51;;;;;;;1.53;1.03;;;20.20;53.30;;;;;;4996424;28;20481;-80
2022/09/18 09:02:37;;;;;;;6.70;1.63;;;20.20;53.70;;;;;;4980006;28;20452;-79
2022/09/18 09:05:09;;;;;;;3.57;1.27;;;20.40;53.30;;;;;;4998109;28;20479;-79
2022/09/18 09:07:59;;;;;;;4.83;1.43;;;20.60;53.80;;;;;;4998696;28;20438;-79
2022/09/18 09:10:37;;;;;;;3.10;1.83;;;20.90;53.50;;;;;;5006874;28;20479;-80
2022/09/18 09:13:17;;;;;;;5.80;1.77;;;21.10;52.70;;;;;;5013879;28;20431;-81
2022/09/18 09:15:48;;;;;;;4.00;1.33;;;21.30;52.80;;;;;;4999739;28;20445;-80
2022/09/18 09:18:17;;;;;;;2.80;1.40;;;21.40;52.50;;;;;;4998668;28;20469;-80
2022/09/18 09:20:50;;;;;;;2.50;1.27;;;21.50;52.10;;;;;;4999213;28;20472;-79
2022/09/18 09:23:20;;;;;;;4.20;1.23;;;21.60;51.90;;;;;;4998015;28;20464;-80
2022/09/18 09:25:53;;;;;;;7.27;1.87;;;21.80;51.60;;;;;;4997892;28;20464;-79
2022/09/18 09:28:23;;;;;;;3.37;1.77;;;21.90;51.60;;;;;;5010014;28;20450;-79
2022/09/18 09:30:55;;;;;;;4.23;1.50;;;22.10;51.10;;;;;;4998930;28;20439;-75
2022/09/18 09:33:26;;;;;;;3.10;1.90;;;22.00;51.20;;;;;;4996088;28;20449;-76
2022/09/18 09:35:55;;;;;;;4.33;1.30;;;21.80;51.80;;;;;;4995280;28;20449;-76
2022/09/18 09:38:31;;;;;;;3.30;1.70;;;21.70;51.70;;;;;;4996369;28;20827;-75
2022/09/18 09:41:01;;;;;;;4.20;2.03;;;21.70;52.20;;;;;;4996367;28;20464;-77
2022/09/18 09:43:30;;;;;;;4.37;1.80;;;21.90;51.60;;;;;;4996305;28;20453;-78
2022/09/18 09:46:03;;;;;;;3.23;1.77;;;22.70;53.10;;;;;;5000332;28;20415;-76
2022/09/18 09:48:36;;;;;;;3.97;1.70;;;23.40;52.10;;;;;;4996830;28;20455;-75
2022/09/18 09:51:05;;;;;;;5.23;2.33;;;23.90;50.90;;;;;;4993371;28;20449;-76
2022/09/18 09:53:34;;;;;;;3.13;2.03;;;24.10;50.10;;;;;;4992275;28;20420;-76
2022/09/18 09:56:07;;;;;;;4.30;1.87;;;24.30;49.80;;;;;;4991172;28;20432;-77
2022/09/18 09:58:40;;;;;;;8.73;2.10;;;24.30;49.80;;;;;;4995427;28;20475;-77
2022/09/18 10:01:11;;;;;;;4.47;2.00;;;24.30;49.50;;;;;;4999065;28;20425;-76
2022/09/18 10:03:44;;;;;;;3.67;1.83;;;24.20;49.80;;;;;;5002820;28;20490;-77
2022/09/18 10:06:19;;;;;;;6.80;1.70;;;24.10;49.50;;;;;;4995549;28;20441;-78
2022/09/18 10:08:49;;;;;;;1.60;1.50;;;24.10;50.00;;;;;;4995505;28;20452;-76
2022/09/18 10:11:17;;;;;;;3.63;1.83;;;24.20;50.40;;;;;;4995446;28;20435;-76
2022/09/18 10:13:46;;;;;;;3.80;2.17;;;24.20;50.50;;;;;;4993859;28;20486;-77
2022/09/18 10:16:18;;;;;;;2.30;1.97;;;24.20;50.60;;;;;;4997513;28;20450;-77
2022/09/18 10:18:46;;;;;;;3.33;1.93;;;24.10;49.40;;;;;;4995401;28;20444;-76
2022/09/18 10:21:15;;;;;;;7.43;1.63;;;24.10;49.20;;;;;;4996171;28;20419;-77
2022/09/18 10:23:45;;;;;;;2.43;2.00;;;23.90;49.10;;;;;;4996610;28;20449;-76
2022/09/18 10:26:14;;;;;;;4.73;1.90;;;23.90;49.50;;;;;;4995311;28;20461;-77
2022/09/18 10:28:42;;;;;;;8.30;2.17;;;24.10;49.70;;;;;;4994832;28;20420;-76
2022/09/18 10:31:11;;;;;;;7.73;2.10;;;24.50;50.40;;;;;;4995652;28;20449;-78
2022/09/18 10:33:41;;;;;;;2.43;1.43;;;24.70;50.80;;;;;;5006306;28;20513;-75
2022/09/18 10:36:18;;;;;;;10.50;2.00;;;25.00;51.10;;;;;;4989018;28;20457;-79
2022/09/18 10:38:46;;;;;;;6.40;2.03;;;25.40;50.60;;;;;;5010552;28;20449;-78
2022/09/18 10:41:39;;;;;;;7.43;2.60;;;25.60;50.10;;;;;;5000060;28;20505;-78
2022/09/18 10:44:20;;;;;;;4.87;2.00;;;25.90;49.30;;;;;;4970710;28;20446;-78
2022/09/18 10:46:57;;;;;;;5.80;1.97;;;26.10;48.50;;;;;;4997329;28;20432;-78
2022/09/18 10:49:29;;;;;;;4.03;2.20;;;26.30;48.00;;;;;;4994766;28;20589;-78
2022/09/18 10:52:31;;;;;;;5.50;2.13;;;26.40;47.40;;;;;;4996544;28;20412;-76
2022/09/18 10:55:12;;;;;;;2.97;2.23;;;26.60;46.80;;;;;;4917712;29;20460;-78
2022/09/18 10:57:42;;;;;;;3.83;1.70;;;26.70;46.70;;;;;;4919815;29;20431;-77
2022/09/18 11:00:33;;;;;;;3.10;1.50;;;26.20;44.60;;;;;;4952008;28;20496;-77
2022/09/18 11:03:05;;;;;;;9.33;2.47;;;25.40;46.60;;;;;;4999558;28;20432;-77
2022/09/18 11:05:35;;;;;;;3.90;1.77;;;24.90;47.60;;;;;;5001876;28;20508;-78
2022/09/18 11:08:05;;;;;;;4.20;1.60;;;25.20;47.80;;;;;;4998211;28;20441;-79
2022/09/18 11:10:35;;;;;;;7.20;2.10;;;25.40;47.60;;;;;;5010090;28;20457;-80
2022/09/18 11:13:03;;;;;;;5.60;1.40;;;25.50;47.50;;;;;;4998197;28;20438;-78
2022/09/18 11:15:32;;;;;;;3.03;1.57;;;25.50;47.60;;;;;;4994338;28;20461;-79
2022/09/18 11:18:02;;;;;;;3.67;1.73;;;26.50;48.20;;;;;;4995386;28;20453;-77
2022/09/18 11:20:31;;;;;;;3.00;1.80;;;28.30;44.80;;;;;;4997732;28;20483;-79
2022/09/18 11:23:16;;;;;;;3.43;1.40;;;29.90;39.80;;;;;;5000593;28;20468;-76
2022/09/18 11:25:45;;;;;;;7.07;1.53;;;30.50;37.90;;;;;;5004564;28;20452;-76
2022/09/18 11:28:22;;;;;;;3.03;1.67;;;29.80;38.60;;;;;;4998061;28;20460;-76
2022/09/18 11:30:56;;;;;;;7.03;2.13;;;29.00;39.70;;;;;;4974952;28;20465;-77
2022/09/18 11:33:26;;;;;;;5.17;1.50;;;28.30;40.50;;;;;;4975245;28;20436;-76
2022/09/18 11:35:56;;;;;;;8.60;1.87;;;27.80;41.60;;;;;;4990155;28;20419;-76
2022/09/18 11:38:25;;;;;;;3.67;1.70;;;27.40;42.20;;;;;;4993958;28;20472;-77
2022/09/18 11:40:55;;;;;;;7.40;1.87;;;27.20;43.20;;;;;;5005625;28;20473;-77
2022/09/18 11:43:29;;;;;;;4.13;1.63;;;27.10;43.30;;;;;;4994263;28;20437;-77
2022/09/18 11:46:04;;;;;;;4.30;2.10;;;27.10;43.90;;;;;;4993607;28;20473;-77
2022/09/18 11:48:34;;;;;;;3.10;1.60;;;27.10;43.90;;;;;;4996611;28;20422;-77
2022/09/18 11:51:11;;;;;;;2.90;1.77;;;27.20;43.50;;;;;;4979557;28;20466;-77
2022/09/18 11:53:41;;;;;;;3.07;1.67;;;27.00;43.50;;;;;;4990741;28;20460;-77
2022/09/18 11:56:12;;;;;;;2.03;1.70;;;26.80;44.30;;;;;;4976755;28;20429;-77
2022/09/18 11:58:43;;;;;;;6.67;2.13;;;26.90;44.00;;;;;;4995199;28;20455;-78
2022/09/18 12:01:14;;;;;;;2.27;1.90;;;26.70;44.00;;;;;;4993294;28;20435;-77
2022/09/18 12:03:44;;;;;;;3.33;1.73;;;26.90;44.80;;;;;;4985370;28;20425;-76
2022/09/18 12:06:14;;;;;;;5.23;1.37;;;27.00;44.30;;;;;;5001264;28;20438;-76
2022/09/18 12:08:48;;;;;;;3.70;1.57;;;27.10;43.90;;;;;;4993916;28;20460;-76
2022/09/18 12:11:20;;;;;;;1.87;1.77;;;26.90;43.90;;;;;;4993717;28;20412;-76
2022/09/18 12:13:53;;;;;;;3.37;1.30;;;26.80;44.10;;;;;;4993383;28;20534;-76
2022/09/18 12:16:24;;;;;;;2.60;1.93;;;26.60;44.40;;;;;;4993081;28;20432;-77
2022/09/18 12:18:59;;;;;;;4.60;1.70;;;26.50;44.50;;;;;;4992881;28;20446;-78
2022/09/18 12:21:36;;;;;;;7.03;1.60;;;26.50;44.60;;;;;;4993459;28;20431;-75
2022/09/18 12:24:09;;;;;;;3.27;1.57;;;26.40;44.70;;;;;;4993414;28;20456;-76
2022/09/18 12:26:41;;;;;;;4.83;1.73;;;26.30;44.80;;;;;;4987227;28;20460;-77
2022/09/18 12:29:17;;;;;;;2.70;1.70;;;26.30;45.10;;;;;;4990731;28;20457;-77
2022/09/18 12:31:51;;;;;;;6.93;1.93;;;26.60;45.20;;;;;;4981354;28;20462;-76
2022/09/18 12:34:23;;;;;;;2.90;1.70;;;26.60;44.60;;;;;;4992954;28;20457;-77
2022/09/18 12:37:05;;;;;;;4.47;1.90;;;26.70;44.90;;;;;;4994262;28;20854;-78
2022/09/18 12:39:48;;;;;;;4.53;1.60;;;26.90;44.40;;;;;;4993960;28;20473;-77
2022/09/18 12:42:21;;;;;;;1.83;1.40;;;27.00;44.30;;;;;;5002042;28;20531;-77
2022/09/18 12:45:24;;;;;;;2.80;1.80;;;27.10;44.10;;;;;;5014343;28;20426;-78
2022/09/18 12:48:04;;;;;;;6.20;2.03;;;27.20;43.50;;;;;;4984540;28;20479;-77
2022/09/18 12:50:45;;;;;;;3.97;1.80;;;27.30;43.60;;;;;;5014104;28;20479;-76
2022/09/18 12:53:21;;;;;;;4.13;1.93;;;27.30;43.40;;;;;;5006595;28;20453;-77
2022/09/18 12:56:03;;;;;;;2.43;2.23;;;27.40;43.30;;;;;;4996051;28;20415;-77
2022/09/18 12:59:10;;;;;;;5.70;1.90;;;27.40;42.90;;;;;;4993396;28;20415;-76
2022/09/18 13:01:41;;;;;;;5.40;1.73;;;27.40;42.90;;;;;;4969393;28;20813;-78
2022/09/18 13:04:19;;;;;;;6.50;1.90;;;27.50;42.70;;;;;;4987485;28;20443;-77